Printer image icon. Send To Printer
           
                RAOB DATA MANUAL QUALITY CONTROL (QC) REPORT
                                  MEXICAN
                       From 20141201 through 20141231

 ___DATE___ HOUR REASN DETAILS...

76225/CUU
   20141201  12Z 10158 10158; Flight equip problems..
   20141202  12Z 10158 10158; Flight equip problems..
   20141221  12Z 10156 Weak signal...10156

3 records found

76256/GYM
   20141201  12Z 10158 10158; Flight equip problems..
   20141202  12Z 10158 10158; Flight equip problems..
   20141203  12Z 10158 10158; flight equip problems..
   20141204  12Z 10158 10158...Flight equipment failure
   20141205  12Z 10158 10158...Flight equipment failure
   20141206  12Z 10158 10158...Flight equipment failure
   20141207  12Z 10158 10158...Flight equipment failure
   20141208  12Z 10158 10158...Flight equipment failure
   20141209  12Z 10158 10158...Flight equipment failure
   20141210  12Z 10158 10158...Flight equipment failure.
   20141212  12Z 10158 10158; flight equip problem..
   20141214  12Z 10158 10158; Flight equip problem..
   20141215  12Z 10158 10158.
   20141216  12Z 10158 10158.
   20141217  12Z 10158 10158.
   20141218  12Z 10158 10158...flight equipment failure
   20141220  12Z 10158 10158...flight equipment failure
   20141221  12Z 10158 Flight equipment failure...10158

18 records found

76405/LAP
   20141205  00Z DELET Purge hts/temps/humidity 925mb up high/warm..
   20141208  00Z 10142 10142
   20141218  00Z DELET Purged all hgts and temps
   20141228  12Z DELET Purged all hgts/temps...high/warm
   20141231  00Z DELET Purge hts/temps and humidity 925mb up..high and warm..

5 records found

76595/CUN
   20141213  12Z 10142 10142; Ground equip problem.

1 record found

76612/GDL
   20141209  12Z 10158 10158...Flight equipment failure
   20141212  12Z 10157 10157; Preventive maintenance..
   20141216  12Z 10142 10142.
   20141217  12Z 10157 10157.
   20141219  12Z 10157 Preventative maintenance...10157
   20141221  12Z 10157 Preventative maintenance...10157

6 records found

76654/MZL
   20141202  00Z DELET Purged heights/temps/moisture 772-118mb...Too high/warm
   20141205  00Z DELET Purge hts/temps/humidity 925mb up high/warm..
   20141205  12Z DELET Purged hts/temps/moisture from 700 mb and up...
                       high/warm
   20141206  00Z DELET Purge hts/temps/humidity 925mb up high/warm..
   20141210  00Z DELET Purged temps/rh...too warm all levels
   20141215  00Z DELET Purged temps/heights all levels...portions high/warm
   20141216  12Z 10142 10142.
   20141224  00Z DELET Purged temps/hgts/rh all lvls...portions hi/warm
   20141226  00Z DELET Purged all hgts/temps...portions high/warm
   20141227  00Z DELET Purged all hgts/temps...portions high/warm
   20141230  00Z DELET Purged all hgts/temps...portions high/warm

11 records found

76679/MEX
   20141221  00Z DELET Purge hts 500mb up high and temp/humidity 773 to 
                       430mb.. very warm..
   20141224  00Z DELET Purged temps/hgts/rh 700 mb and up...portions hi/warm
   20141224  12Z DELET Purged all hgts/temps...portions high/warm
   20141227  00Z DELET Purged all hgts/temps...high/warm

4 records found

76692/HYY
   20141202  00Z 10158 10158...Flight equipment failure.
   20141203  00Z 10158 Flight equipment failure...10158
   20141204  00Z 10158 Flight equipment failure...10158
   20141205  00Z 10158 10158; Flight equip problem..
   20141206  00Z 10158 10158; Flight equip problems..
   20141207  00Z 10158 10158
   20141208  00Z 10158 10158
   20141209  00Z 10158 Flight equipment failure...10158
   20141210  00Z 10158 10158...flight equipment failure
   20141211  00Z 10158 Flight equipment failure...10158
   20141212  00Z 10158 10158...Flight equipment failure.
   20141213  00Z 10158 10158...Flight equipment failure.
   20141214  00Z 10158 10158...Flight equipment failure
   20141215  00Z 10158 10158...Flight equipment failure
   20141216  00Z 10158 10158
   20141217  00Z 10158 10158
   20141218  00Z 10158 10158
   20141219  00Z 10158 10158.
   20141220  00Z 10158 10158.
   20141221  00Z 10142 10142; ground equip problem..
   20141221  12Z 10142 Ground equipment failure...10142
   20141222  00Z 10158 10158; Flight equip problems..
   20141223  00Z 10158 10158...Flight equipment failure
   20141225  00Z 10158 10158...flight equipment failure
   20141226  00Z 10158 10158
   20141227  00Z 10158 10158
   20141228  00Z 10158 Flight equipment failure...10158
   20141229  00Z 10158 10158
   20141231  00Z 10158 10158; Flight equip problem..

29 records found

76805/ACA
   20141209  12Z 10158 10158...Flight equipment failure
   20141211  12Z 10158 10158; flight equip problem..
   20141212  12Z 10158 10158; flight equip problem..
   20141231  12Z 10158 10158.

4 records found



SELECTED STATIONS WITH NO SDM QC:
  76394/MTY  76458/MZT  76526/ZAC  76644/MID  76743/VHA  76903/TAP


This and related reports are available on the Web at . . .
http://www.nco.ncep.noaa.gov/sib/qap/raobqc/